createdAt,value
2022-12-28T00:02:11.164Z,10.55
2022-12-28T00:04:58.335Z,10.82
2022-12-28T00:07:46.098Z,11.18
2022-12-28T00:11:06.802Z,10.65
2022-12-28T00:13:24.076Z,11.08
2022-12-28T00:16:14.160Z,10.08
2022-12-28T00:19:04.637Z,9.98
2022-12-28T00:21:56.181Z,10.40
2022-12-28T00:24:43.354Z,11.08
2022-12-28T00:27:30.991Z,10.82
2022-12-28T00:30:18.329Z,12.03
2022-12-28T00:33:05.799Z,10.70
2022-12-28T00:35:58.192Z,11.38
2022-12-28T00:38:45.917Z,10.53
2022-12-28T00:41:33.121Z,11.68
2022-12-28T00:44:20.444Z,10.72
2022-12-28T00:47:07.688Z,11.57
2022-12-28T00:49:55.231Z,10.40
2022-12-28T00:52:42.732Z,11.12
2022-12-28T00:55:30.143Z,11.80
2022-12-28T00:58:17.918Z,10.90
2022-12-28T01:01:07.144Z,10.53
2022-12-28T01:03:59.225Z,10.53
2022-12-28T01:06:46.688Z,10.30
2022-12-28T01:09:34.130Z,10.08
2022-12-28T01:12:24.330Z,10.13
2022-12-28T01:15:13.422Z,10.10
2022-12-28T01:18:00.706Z,10.08
2022-12-28T01:20:47.859Z,10.98
2022-12-28T01:23:36.795Z,10.03
2022-12-28T01:26:24.417Z,10.25
2022-12-28T01:29:11.987Z,10.03
2022-12-28T01:31:59.419Z,10.25
2022-12-28T01:34:46.965Z,11.28
2022-12-28T01:37:35.546Z,10.35
2022-12-28T01:40:25.603Z,9.63
2022-12-28T01:43:15.398Z,10.00
2022-12-28T01:46:04.313Z,9.88
2022-12-28T01:49:00.757Z,8.90
2022-12-28T01:51:57.260Z,9.98
2022-12-28T01:54:53.813Z,10.08
2022-12-28T01:57:50.835Z,10.78
2022-12-28T02:00:38.375Z,9.88
2022-12-28T02:03:28.652Z,10.23
2022-12-28T02:06:16.025Z,10.68
2022-12-28T02:09:12.275Z,10.15
2022-12-28T02:12:01.352Z,10.10
2022-12-28T02:14:48.887Z,10.15
2022-12-28T02:17:36.503Z,9.73
2022-12-28T02:20:26.808Z,10.13
2022-12-28T02:23:26.421Z,10.25
2022-12-28T02:26:31.699Z,10.45
2022-12-28T02:29:45.707Z,9.85
2022-12-28T02:33:02.230Z,10.32
2022-12-28T02:36:11.679Z,9.58
2022-12-28T02:39:06.663Z,9.88
2022-12-28T02:41:57.244Z,9.63
2022-12-28T02:45:02.610Z,9.25
2022-12-28T02:48:07.830Z,9.28
2022-12-28T02:51:13.488Z,9.28
2022-12-28T02:54:55.746Z,9.45
2022-12-28T02:58:08.674Z,9.38
2022-12-28T03:01:05.217Z,9.05
2022-12-28T03:04:15.330Z,9.08
2022-12-28T03:07:43.478Z,9.58
2022-12-28T03:10:39.521Z,10.63
2022-12-28T03:13:45.023Z,10.32
2022-12-28T03:16:41.015Z,9.75
2022-12-28T03:19:54.859Z,9.90
2022-12-28T03:23:02.156Z,10.10
2022-12-28T03:26:08.850Z,10.03
2022-12-28T03:29:16.320Z,10.68
2022-12-28T03:32:04.505Z,10.82
2022-12-28T03:34:53.253Z,10.90
2022-12-28T03:37:46.534Z,10.25
2022-12-28T03:40:53.955Z,10.38
2022-12-28T03:43:50.242Z,9.83
2022-12-28T03:46:58.781Z,10.50
2022-12-28T03:49:46.205Z,10.63
2022-12-28T03:52:34.200Z,10.40
2022-12-28T03:55:24.435Z,11.45
2022-12-28T03:58:12.236Z,10.40
2022-12-28T04:01:00.421Z,11.63
2022-12-28T04:03:48.060Z,11.05
2022-12-28T04:06:35.337Z,11.50
2022-12-28T04:09:25.533Z,10.65
2022-12-28T04:12:14.446Z,11.12
2022-12-28T04:15:01.684Z,11.00
2022-12-28T04:17:49.150Z,10.68
2022-12-28T04:20:36.772Z,11.75
2022-12-28T04:23:29.578Z,11.28
2022-12-28T04:26:18.112Z,12.65
2022-12-28T04:29:05.568Z,11.90
2022-12-28T04:31:54.619Z,12.05
2022-12-28T04:34:48.035Z,12.37
2022-12-28T04:37:30.817Z,12.80
2022-12-28T04:40:18.100Z,12.60
2022-12-28T04:43:05.609Z,12.45
2022-12-28T04:46:03.716Z,11.90
2022-12-28T04:48:52.711Z,11.78
2022-12-28T04:51:40.021Z,11.83
2022-12-28T04:54:27.371Z,11.38
2022-12-28T04:57:14.872Z,11.12
2022-12-28T05:00:02.317Z,10.80
2022-12-28T05:02:50.035Z,10.58
2022-12-28T05:05:38.532Z,10.82
2022-12-28T05:08:25.856Z,10.00
2022-12-28T05:11:19.292Z,9.98
2022-12-28T05:14:06.466Z,10.18
2022-12-28T05:16:56.881Z,9.73
2022-12-28T05:19:44.589Z,8.75
2022-12-28T05:22:35.089Z,8.78
2022-12-28T05:25:20.999Z,9.35
2022-12-28T05:28:11.225Z,8.60
2022-12-28T05:31:08.042Z,9.00
2022-12-28T05:33:55.858Z,9.85
2022-12-28T05:36:43.172Z,8.88
2022-12-28T05:39:30.849Z,8.33
2022-12-28T05:42:17.957Z,8.60
2022-12-28T05:45:05.781Z,8.55
2022-12-28T05:47:56.012Z,7.92
2022-12-28T05:50:43.502Z,9.15
2022-12-28T05:53:32.332Z,8.18
2022-12-28T05:56:25.773Z,8.33
2022-12-28T05:59:13.893Z,8.55
2022-12-28T06:02:01.600Z,8.45
2022-12-28T06:04:49.244Z,8.90
2022-12-28T06:07:36.930Z,8.28
2022-12-28T06:10:27.359Z,8.30
2022-12-28T06:13:14.661Z,9.15
2022-12-28T06:16:11.029Z,7.70
2022-12-28T06:18:58.936Z,8.85
2022-12-28T06:21:46.466Z,8.33
2022-12-28T06:24:33.799Z,8.65
2022-12-28T06:27:22.710Z,7.58
2022-12-28T06:30:11.172Z,7.37
2022-12-28T06:32:59.013Z,8.20
2022-12-28T06:35:46.471Z,7.65
2022-12-28T06:38:34.495Z,7.30
2022-12-28T06:41:25.817Z,7.97
2022-12-28T06:44:14.423Z,7.15
2022-12-28T06:47:02.897Z,7.12
2022-12-28T06:49:50.304Z,6.92
2022-12-28T06:52:37.534Z,7.15
2022-12-28T06:55:25.616Z,7.42
2022-12-28T06:58:13.225Z,7.05
2022-12-28T07:01:12.490Z,6.72
2022-12-28T07:04:01.624Z,6.47
2022-12-28T07:06:48.807Z,6.22
2022-12-28T07:09:36.371Z,6.00
2022-12-28T07:12:25.393Z,6.17
2022-12-28T07:15:12.872Z,6.42
2022-12-28T07:18:00.333Z,6.35
2022-12-28T07:20:47.746Z,6.05
2022-12-28T07:23:35.809Z,5.78
2022-12-28T07:26:29.527Z,5.75
2022-12-28T07:29:16.629Z,5.78
2022-12-28T07:32:04.313Z,4.90
2022-12-28T07:34:54.471Z,5.80
2022-12-28T07:37:41.580Z,5.28
2022-12-28T07:40:29.035Z,5.20
2022-12-28T07:43:16.140Z,5.08
2022-12-28T07:46:06.012Z,5.10
2022-12-28T07:48:54.420Z,4.83
2022-12-28T07:51:41.738Z,4.45
2022-12-28T07:54:29.263Z,5.00
2022-12-28T07:57:17.061Z,4.50
2022-12-28T08:00:07.325Z,4.95
2022-12-28T08:03:18.292Z,4.72
2022-12-28T08:06:07.752Z,4.42
2022-12-28T08:08:57.394Z,3.98
2022-12-28T08:11:46.438Z,4.60
2022-12-28T08:14:33.898Z,4.20
2022-12-28T08:17:22.524Z,4.08
2022-12-28T08:20:09.932Z,4.60
2022-12-28T08:22:57.516Z,4.20
2022-12-28T08:25:45.053Z,4.28
2022-12-28T08:28:32.414Z,4.28
2022-12-28T08:31:25.720Z,4.20
2022-12-28T08:34:16.299Z,4.17
2022-12-28T08:37:03.557Z,3.92
2022-12-28T08:39:50.799Z,4.45
2022-12-28T08:42:38.209Z,4.85
2022-12-28T08:45:26.366Z,3.92
2022-12-28T08:48:13.847Z,4.22
2022-12-28T08:51:10.326Z,4.20
2022-12-28T08:53:57.680Z,4.15
2022-12-28T08:56:46.584Z,3.98
2022-12-28T08:59:33.753Z,4.42
2022-12-28T09:02:23.381Z,4.25
2022-12-28T09:05:10.385Z,3.80
2022-12-28T09:07:59.738Z,3.98
2022-12-28T09:10:46.673Z,3.72
2022-12-28T09:13:35.063Z,4.03
2022-12-28T09:16:25.858Z,4.22
2022-12-28T09:19:15.799Z,3.90
2022-12-28T09:22:03.034Z,4.15
2022-12-28T09:24:50.516Z,3.25
2022-12-28T09:27:37.964Z,3.62
2022-12-28T09:30:25.479Z,3.15
2022-12-28T09:33:32.101Z,3.45
2022-12-28T09:36:19.891Z,3.47
2022-12-28T09:39:10.716Z,3.37
2022-12-28T09:42:16.870Z,3.60
2022-12-28T09:45:10.047Z,2.90
2022-12-28T09:48:03.521Z,3.60
2022-12-28T09:50:53.689Z,5.47
2022-12-28T09:53:41.234Z,5.70
2022-12-28T09:56:39.690Z,3.35
2022-12-28T09:59:29.887Z,3.87
2022-12-28T10:02:20.655Z,3.47
2022-12-28T10:05:09.465Z,3.22
2022-12-28T10:07:59.608Z,3.33
2022-12-28T10:10:49.175Z,2.87
2022-12-28T10:13:56.569Z,3.60
2022-12-28T10:16:36.758Z,2.90
2022-12-28T10:19:27.625Z,3.15
2022-12-28T10:22:20.352Z,3.00
2022-12-28T10:25:19.665Z,2.90
2022-12-28T10:28:09.561Z,2.70
2022-12-28T10:31:09.167Z,2.90
2022-12-28T10:33:56.328Z,2.47
2022-12-28T10:36:44.433Z,2.67
2022-12-28T10:39:34.145Z,2.80
2022-12-28T10:42:41.254Z,2.90
2022-12-28T10:45:37.293Z,2.47
2022-12-28T10:48:27.628Z,2.27
2022-12-28T10:51:22.314Z,2.52
2022-12-28T10:54:12.568Z,2.30
2022-12-28T10:56:59.909Z,2.20
2022-12-28T10:59:50.746Z,2.60
2022-12-28T11:02:37.940Z,2.65
2022-12-28T11:05:26.123Z,2.60
2022-12-28T11:08:14.965Z,2.67
2022-12-28T11:11:03.097Z,2.45
2022-12-28T11:13:55.880Z,2.25
2022-12-28T11:16:44.317Z,2.05
2022-12-28T11:19:31.961Z,2.15
2022-12-28T11:22:24.019Z,2.50
2022-12-28T11:25:14.566Z,2.50
2022-12-28T11:28:07.588Z,2.30
2022-12-28T11:30:54.921Z,2.30
2022-12-28T11:33:53.742Z,2.33
2022-12-28T11:36:41.870Z,2.30
2022-12-28T11:39:32.533Z,2.40
2022-12-28T11:42:41.629Z,2.58
2022-12-28T11:45:55.573Z,2.42
2022-12-28T11:48:46.128Z,2.72
2022-12-28T11:51:37.553Z,2.42
2022-12-28T11:54:39.327Z,2.58
2022-12-28T11:57:40.876Z,2.30
2022-12-28T12:00:40.204Z,2.42
2022-12-28T12:03:59.544Z,2.42
2022-12-28T12:06:50.003Z,2.17
2022-12-28T12:09:40.452Z,2.40
2022-12-28T12:12:34.013Z,2.22
2022-12-28T12:15:24.568Z,2.52
2022-12-28T12:18:23.884Z,2.40
2022-12-28T12:21:16.021Z,2.58
2022-12-28T12:24:07.784Z,2.20
2022-12-28T12:27:10.185Z,2.50
2022-12-28T12:30:04.163Z,2.17
2022-12-28T12:33:06.563Z,2.10
2022-12-28T12:36:00.205Z,2.67
2022-12-28T12:38:53.547Z,2.47
2022-12-28T12:41:56.210Z,2.33
2022-12-28T12:45:09.099Z,2.12
2022-12-28T12:48:11.763Z,1.75
2022-12-28T12:51:03.826Z,2.25
2022-12-28T12:54:13.297Z,1.80
2022-12-28T12:57:20.850Z,2.83
2022-12-28T13:00:25.504Z,2.17
2022-12-28T13:03:24.918Z,2.15
2022-12-28T13:06:16.258Z,2.12
2022-12-28T13:09:07.007Z,2.17
2022-12-28T13:11:58.643Z,2.60
2022-12-28T13:14:52.257Z,2.52
2022-12-28T13:17:39.607Z,2.27
2022-12-28T13:20:27.610Z,4.90
2022-12-28T13:23:17.820Z,3.27
2022-12-28T13:26:05.490Z,2.50
2022-12-28T13:29:01.990Z,2.40
2022-12-28T13:31:50.696Z,2.27
2022-12-28T13:34:38.971Z,2.25
2022-12-28T13:37:26.064Z,1.92
2022-12-28T13:40:17.868Z,2.67
2022-12-28T13:43:30.849Z,2.20
2022-12-28T13:46:20.663Z,2.22
2022-12-28T13:49:10.654Z,2.70
2022-12-28T13:51:58.509Z,2.15
2022-12-28T13:54:49.169Z,2.35
2022-12-28T13:57:49.043Z,2.60
2022-12-28T14:00:29.070Z,1.82
2022-12-28T14:03:18.252Z,2.10
2022-12-28T14:06:06.443Z,2.27
2022-12-28T14:08:55.632Z,2.20
2022-12-28T14:11:45.789Z,2.12
2022-12-28T14:14:33.724Z,2.27
2022-12-28T14:17:23.646Z,2.20
2022-12-28T14:20:12.138Z,3.05
2022-12-28T14:23:25.688Z,2.52
2022-12-28T14:26:22.241Z,2.83
2022-12-28T14:29:24.493Z,2.87
2022-12-28T14:32:15.003Z,2.75
2022-12-28T14:35:02.955Z,2.98
2022-12-28T14:37:55.722Z,2.15
2022-12-28T14:40:43.409Z,3.08
2022-12-28T14:43:34.045Z,2.25
2022-12-28T14:46:38.961Z,2.10
2022-12-28T14:49:35.418Z,2.10
2022-12-28T14:52:25.761Z,2.30
2022-12-28T14:55:33.388Z,1.90
2022-12-28T15:01:11.347Z,2.55
2022-12-28T15:04:01.881Z,2.45
2022-12-28T15:06:49.408Z,2.67
2022-12-28T15:09:37.738Z,2.70
2022-12-28T15:12:25.379Z,2.25
2022-12-28T15:15:12.927Z,3.10
2022-12-28T15:18:00.877Z,3.02
2022-12-28T15:20:48.033Z,2.95
2022-12-28T15:23:35.170Z,3.27
2022-12-28T15:26:24.912Z,2.72
2022-12-28T15:29:18.872Z,2.87
2022-12-28T15:32:01.210Z,2.70
2022-12-28T15:34:48.788Z,2.37
2022-12-28T15:37:36.192Z,2.67
2022-12-28T15:40:26.669Z,2.37
2022-12-28T15:43:13.824Z,2.52
2022-12-28T15:46:01.699Z,2.47
2022-12-28T15:48:49.175Z,2.50
2022-12-28T15:51:36.379Z,2.85
2022-12-28T15:54:26.970Z,2.40
2022-12-28T15:57:15.712Z,2.00
2022-12-28T16:00:03.842Z,2.12
2022-12-28T16:02:58.854Z,1.70
2022-12-28T16:05:46.299Z,1.90
2022-12-28T16:08:33.636Z,2.08
2022-12-28T16:11:26.091Z,1.95
2022-12-28T16:14:16.276Z,1.80
2022-12-28T16:17:03.872Z,2.30
2022-12-28T16:19:51.627Z,2.05
2022-12-28T16:22:39.102Z,2.50
2022-12-28T16:25:26.494Z,3.22
2022-12-28T16:28:15.104Z,2.35
2022-12-28T16:31:02.604Z,2.00
2022-12-28T16:33:53.339Z,2.00
2022-12-28T16:36:42.635Z,2.40
2022-12-28T16:39:30.740Z,2.10
2022-12-28T16:42:18.057Z,2.50
2022-12-28T16:45:05.629Z,2.20
2022-12-28T16:47:53.983Z,2.20
2022-12-28T16:50:42.126Z,1.92
2022-12-28T16:53:32.891Z,2.08
2022-12-28T16:56:20.348Z,1.80
2022-12-28T16:59:07.759Z,2.35
2022-12-28T17:01:57.068Z,2.02
2022-12-28T17:04:47.323Z,2.12
2022-12-28T17:07:34.545Z,2.47
2022-12-28T17:10:23.972Z,2.30
2022-12-28T17:13:13.237Z,2.50
2022-12-28T17:16:05.357Z,3.33
2022-12-28T17:18:52.851Z,2.60
2022-12-28T17:21:41.550Z,3.40
2022-12-28T17:24:29.163Z,3.12
2022-12-28T17:27:19.240Z,2.95
2022-12-28T17:30:06.038Z,2.80
2022-12-28T17:32:57.128Z,2.98
2022-12-28T17:35:44.411Z,2.72
2022-12-28T17:38:31.908Z,2.65
2022-12-28T17:41:23.969Z,2.62
2022-12-28T17:44:12.705Z,2.65
2022-12-28T17:47:00.769Z,2.83
2022-12-28T17:49:48.528Z,2.62
2022-12-28T17:52:35.933Z,3.10
2022-12-28T17:55:24.795Z,3.25
2022-12-28T17:58:12.448Z,2.98
2022-12-28T18:01:00.932Z,3.42
2022-12-28T18:03:48.636Z,3.10
2022-12-28T18:06:36.564Z,2.70
2022-12-28T18:09:27.987Z,2.55
2022-12-28T18:12:14.174Z,3.40
2022-12-28T18:15:01.774Z,3.25
2022-12-28T18:17:49.012Z,3.08
2022-12-28T18:20:36.211Z,4.65
2022-12-28T18:23:25.345Z,3.60
2022-12-28T18:26:15.883Z,3.17
2022-12-28T18:29:03.261Z,3.72
2022-12-28T18:31:55.084Z,3.65
2022-12-28T18:34:45.513Z,3.25
2022-12-28T18:37:32.860Z,3.70
2022-12-28T18:40:19.990Z,3.58
2022-12-28T18:43:07.810Z,3.33
2022-12-28T18:45:56.767Z,3.60
2022-12-28T18:48:44.203Z,3.70
2022-12-28T18:51:31.367Z,3.55
2022-12-28T18:54:18.729Z,3.60
2022-12-28T18:57:05.959Z,3.80
2022-12-28T18:59:55.230Z,4.08
2022-12-28T19:02:42.827Z,3.75
2022-12-28T19:05:30.516Z,5.00
2022-12-28T19:08:18.021Z,5.12
2022-12-28T19:11:06.328Z,4.25
2022-12-28T19:13:56.718Z,4.97
2022-12-28T19:16:45.168Z,4.80
2022-12-28T19:19:32.660Z,4.70
2022-12-28T19:22:25.715Z,5.30
2022-12-28T19:25:13.340Z,4.97
2022-12-28T19:28:00.524Z,5.20
2022-12-28T19:30:48.087Z,4.50
2022-12-28T19:33:35.842Z,5.47
2022-12-28T19:36:25.984Z,4.30
2022-12-28T19:39:13.232Z,3.92
2022-12-28T19:42:00.501Z,4.55
2022-12-28T19:44:47.839Z,4.80
2022-12-28T19:47:35.390Z,4.03
2022-12-28T19:50:23.182Z,3.75
2022-12-28T19:53:10.548Z,3.52
2022-12-28T19:55:59.957Z,3.27
2022-12-28T19:58:47.836Z,3.62
2022-12-28T20:01:36.705Z,3.20
2022-12-28T20:04:27.427Z,3.00
2022-12-28T20:07:14.812Z,3.15
2022-12-28T20:10:01.876Z,2.83
2022-12-28T20:12:49.359Z,2.83
2022-12-28T20:15:36.856Z,2.95
2022-12-28T20:18:27.140Z,3.02
2022-12-28T20:21:19.739Z,2.80
2022-12-28T20:24:03.880Z,2.42
2022-12-28T20:26:59.604Z,2.80
2022-12-28T20:29:42.957Z,2.70
2022-12-28T20:32:30.585Z,2.95
2022-12-28T20:35:18.240Z,2.95
2022-12-28T20:38:08.049Z,2.60
2022-12-28T20:41:34.662Z,2.12
2022-12-28T20:44:28.115Z,2.65
2022-12-28T20:47:15.491Z,2.22
2022-12-28T20:50:03.947Z,2.70
2022-12-28T20:52:53.836Z,2.40
2022-12-28T20:55:41.494Z,2.40
2022-12-28T20:58:28.697Z,2.42
2022-12-28T21:01:17.332Z,2.60
2022-12-28T21:04:05.072Z,3.37
2022-12-28T21:06:54.110Z,5.25
2022-12-28T21:09:41.775Z,2.80
2022-12-28T21:12:29.161Z,3.35
2022-12-28T21:15:17.104Z,2.77
2022-12-28T21:18:07.673Z,2.90
2022-12-28T21:20:59.987Z,3.05
2022-12-28T21:23:47.737Z,2.87
2022-12-28T21:26:36.260Z,3.77
2022-12-28T21:29:26.186Z,3.67
2022-12-28T21:32:13.485Z,4.00
2022-12-28T21:35:00.520Z,4.47
2022-12-28T21:37:47.963Z,3.85
2022-12-28T21:40:35.481Z,3.30
2022-12-28T21:43:26.621Z,3.77
2022-12-28T21:46:15.514Z,3.95
2022-12-28T21:49:05.350Z,3.27
2022-12-28T21:51:56.695Z,2.92
2022-12-28T21:54:45.546Z,2.90
2022-12-28T21:57:32.667Z,3.05
2022-12-28T22:00:38.573Z,3.02
2022-12-28T22:03:44.123Z,3.30
2022-12-28T22:06:31.277Z,2.92
2022-12-28T22:09:38.296Z,3.02
2022-12-28T22:12:36.201Z,3.33
2022-12-28T22:15:44.451Z,2.87
2022-12-28T22:21:20.922Z,3.20
2022-12-28T22:24:12.727Z,2.95
2022-12-28T22:26:59.880Z,2.90
2022-12-28T22:29:47.299Z,2.90
2022-12-28T22:32:34.821Z,3.33
2022-12-28T22:35:24.555Z,2.83
2022-12-28T22:38:11.747Z,2.90
2022-12-28T22:40:59.715Z,2.75
2022-12-28T22:43:54.866Z,2.95
2022-12-28T22:46:42.080Z,2.85
2022-12-28T22:49:29.555Z,3.17
2022-12-28T22:52:16.714Z,2.62
2022-12-28T22:55:04.357Z,2.80
2022-12-28T22:57:54.324Z,2.40
2022-12-28T23:00:41.624Z,2.60
2022-12-28T23:03:29.062Z,2.62
2022-12-28T23:06:19.320Z,2.98
2022-12-28T23:09:06.782Z,2.67
2022-12-28T23:11:55.253Z,2.30
2022-12-28T23:15:00.730Z,2.75
2022-12-28T23:17:49.800Z,2.25
2022-12-28T23:20:43.752Z,2.72
2022-12-28T23:23:48.943Z,2.60
2022-12-28T23:26:54.109Z,3.10
2022-12-28T23:29:41.403Z,2.35
2022-12-28T23:32:28.711Z,2.70
2022-12-28T23:35:17.406Z,2.55
2022-12-28T23:38:06.505Z,2.87
2022-12-28T23:40:56.766Z,2.50
2022-12-28T23:43:43.824Z,2.58
2022-12-28T23:46:31.322Z,2.40
2022-12-28T23:49:19.396Z,2.52
2022-12-28T23:52:06.647Z,2.22
2022-12-28T23:54:55.533Z,2.12
2022-12-28T23:57:43.310Z,2.50
